sensor_id;sensor_type;location;lat;lon;timestamp;pressure;altitude;pressure_sealevel;temperature;humidity
42067;BME280;27734;47.028;28.820;2024-03-06T00:02:14;100519.67;;;3.31;77.34
42067;BME280;27734;47.028;28.820;2024-03-06T00:04:45;100522.95;;;3.28;77.54
42067;BME280;27734;47.028;28.820;2024-03-06T00:07:17;100523.64;;;3.26;77.56
42067;BME280;27734;47.028;28.820;2024-03-06T00:09:48;100525.44;;;3.27;77.06
42067;BME280;27734;47.028;28.820;2024-03-06T00:12:20;100514.19;;;3.26;77.00
42067;BME280;27734;47.028;28.820;2024-03-06T00:14:51;100517.77;;;3.28;78.06
42067;BME280;27734;47.028;28.820;2024-03-06T00:17:22;100515.17;;;3.28;76.97
42067;BME280;27734;47.028;28.820;2024-03-06T00:19:54;100521.44;;;3.32;77.46
42067;BME280;27734;47.028;28.820;2024-03-06T00:22:25;100520.75;;;3.34;77.56
42067;BME280;27734;47.028;28.820;2024-03-06T00:24:56;100522.04;;;3.41;77.40
42067;BME280;27734;47.028;28.820;2024-03-06T00:27:27;100527.72;;;3.49;77.17
42067;BME280;27734;47.028;28.820;2024-03-06T00:29:58;100514.85;;;3.50;77.33
42067;BME280;27734;47.028;28.820;2024-03-06T00:32:29;100518.27;;;3.49;77.72
42067;BME280;27734;47.028;28.820;2024-03-06T00:35:01;100514.66;;;3.47;77.01
42067;BME280;27734;47.028;28.820;2024-03-06T00:37:33;100512.88;;;3.46;77.89
42067;BME280;27734;47.028;28.820;2024-03-06T00:40:05;100513.67;;;3.45;77.75
42067;BME280;27734;47.028;28.820;2024-03-06T00:42:37;100517.15;;;3.46;77.65
42067;BME280;27734;47.028;28.820;2024-03-06T00:45:11;100514.55;;;3.46;78.20
42067;BME280;27734;47.028;28.820;2024-03-06T00:47:42;100506.67;;;3.44;77.44
42067;BME280;27734;47.028;28.820;2024-03-06T00:50:14;100515.77;;;3.51;77.80
42067;BME280;27734;47.028;28.820;2024-03-06T00:52:46;100511.47;;;3.51;77.80
42067;BME280;27734;47.028;28.820;2024-03-06T00:55:20;100515.77;;;3.51;78.01
42067;BME280;27734;47.028;28.820;2024-03-06T00:57:51;100513.38;;;3.54;78.30
42067;BME280;27734;47.028;28.820;2024-03-06T01:00:23;100525.63;;;3.56;78.66
42067;BME280;27734;47.028;28.820;2024-03-06T01:02:54;100513.47;;;3.55;77.60
42067;BME280;27734;47.028;28.820;2024-03-06T01:05:25;100521.25;;;3.55;77.35
42067;BME280;27734;47.028;28.820;2024-03-06T01:07:57;100513.47;;;3.55;77.83
42067;BME280;27734;47.028;28.820;2024-03-06T01:10:28;100522.14;;;3.56;77.62
42067;BME280;27734;47.028;28.820;2024-03-06T01:13:00;100519.74;;;3.59;77.88
42067;BME280;27734;47.028;28.820;2024-03-06T01:15:32;100524.14;;;3.60;78.10
42067;BME280;27734;47.028;28.820;2024-03-06T01:18:03;100521.84;;;3.65;78.76
42067;BME280;27734;47.028;28.820;2024-03-06T01:20:34;100529.00;;;3.69;78.41
42067;BME280;27734;47.028;28.820;2024-03-06T01:23:06;100522.39;;;3.74;77.77
42067;BME280;27734;47.028;28.820;2024-03-06T01:25:37;100528.07;;;3.82;78.49
42067;BME280;27734;47.028;28.820;2024-03-06T01:28:08;100531.16;;;3.89;78.52
42067;BME280;27734;47.028;28.820;2024-03-06T01:30:39;100521.34;;;3.99;78.35
42067;BME280;27734;47.028;28.820;2024-03-06T01:33:10;100522.45;;;4.02;78.38
42067;BME280;27734;47.028;28.820;2024-03-06T01:35:42;100523.15;;;4.00;78.58
42067;BME280;27734;47.028;28.820;2024-03-06T01:38:13;100523.84;;;3.97;78.20
42067;BME280;27734;47.028;28.820;2024-03-06T01:40:46;100519.28;;;3.93;78.19
42067;BME280;27734;47.028;28.820;2024-03-06T01:43:24;100518.08;;;3.88;77.93
42067;BME280;27734;47.028;28.820;2024-03-06T01:45:56;100517.19;;;3.87;78.37
42067;BME280;27734;47.028;28.820;2024-03-06T01:48:29;100528.36;;;3.86;77.84
42067;BME280;27734;47.028;28.820;2024-03-06T01:51:03;100525.57;;;3.83;78.55
42067;BME280;27734;47.028;28.820;2024-03-06T01:53:36;100524.69;;;3.83;79.06
42067;BME280;27734;47.028;28.820;2024-03-06T01:56:09;100528.17;;;3.83;78.26
42067;BME280;27734;47.028;28.820;2024-03-06T01:58:41;100525.95;;;3.89;78.71
42067;BME280;27734;47.028;28.820;2024-03-06T02:01:13;100520.96;;;3.92;78.29
42067;BME280;27734;47.028;28.820;2024-03-06T02:03:45;100525.27;;;3.92;78.19
42067;BME280;27734;47.028;28.820;2024-03-06T02:06:16;100533.75;;;3.89;78.34
42067;BME280;27734;47.028;28.820;2024-03-06T02:08:49;100535.36;;;3.87;78.76
42067;BME280;27734;47.028;28.820;2024-03-06T02:11:21;100534.57;;;3.88;78.52
42067;BME280;27734;47.028;28.820;2024-03-06T02:13:52;100537.36;;;3.91;78.75
42067;BME280;27734;47.028;28.820;2024-03-06T02:16:23;100532.36;;;3.94;78.41
42067;BME280;27734;47.028;28.820;2024-03-06T02:18:56;100535.65;;;3.92;78.56
42067;BME280;27734;47.028;28.820;2024-03-06T02:21:28;100532.77;;;3.87;79.04
42067;BME280;27734;47.028;28.820;2024-03-06T02:23:59;100538.55;;;3.83;78.70
42067;BME280;27734;47.028;28.820;2024-03-06T02:26:30;100542.77;;;3.81;78.14
42067;BME280;27734;47.028;28.820;2024-03-06T02:29:01;100542.66;;;3.80;78.73
42067;BME280;27734;47.028;28.820;2024-03-06T02:31:35;100540.95;;;3.80;79.31
42067;BME280;27734;47.028;28.820;2024-03-06T02:34:08;100544.38;;;3.79;78.33
42067;BME280;27734;47.028;28.820;2024-03-06T02:36:40;100540.95;;;3.80;79.00
42067;BME280;27734;47.028;28.820;2024-03-06T02:39:11;100539.28;;;3.81;78.61
42067;BME280;27734;47.028;28.820;2024-03-06T02:41:42;100541.87;;;3.81;78.63
42067;BME280;27734;47.028;28.820;2024-03-06T02:44:13;100542.77;;;3.81;79.65
42067;BME280;27734;47.028;28.820;2024-03-06T02:46:48;100541.05;;;3.82;79.19
42067;BME280;27734;47.028;28.820;2024-03-06T02:49:19;100541.25;;;3.85;78.73
42067;BME280;27734;47.028;28.820;2024-03-06T02:51:51;100548.25;;;3.86;79.41
42067;BME280;27734;47.028;28.820;2024-03-06T02:54:22;100544.86;;;3.87;79.23
42067;BME280;27734;47.028;28.820;2024-03-06T02:56:54;100532.07;;;3.90;79.12
42067;BME280;27734;47.028;28.820;2024-03-06T02:59:25;100527.86;;;3.92;79.53
42067;BME280;27734;47.028;28.820;2024-03-06T03:01:57;100542.84;;;3.96;79.30
42067;BME280;27734;47.028;28.820;2024-03-06T03:04:29;100535.94;;;3.96;78.80
42067;BME280;27734;47.028;28.820;2024-03-06T03:07:01;100538.63;;;3.98;79.45
42067;BME280;27734;47.028;28.820;2024-03-06T03:09:32;100545.83;;;4.02;79.47
42067;BME280;27734;47.028;28.820;2024-03-06T03:12:06;100543.13;;;4.01;79.30
42067;BME280;27734;47.028;28.820;2024-03-06T03:14:37;100542.31;;;4.02;79.12
42067;BME280;27734;47.028;28.820;2024-03-06T03:17:08;100542.50;;;4.05;79.61
42067;BME280;27734;47.028;28.820;2024-03-06T03:19:40;100541.02;;;4.08;79.72
42067;BME280;27734;47.028;28.820;2024-03-06T03:22:11;100538.42;;;4.08;79.30
42067;BME280;27734;47.028;28.820;2024-03-06T03:24:44;100538.42;;;4.08;79.91
42067;BME280;27734;47.028;28.820;2024-03-06T03:27:15;100538.52;;;4.10;79.59
42067;BME280;27734;47.028;28.820;2024-03-06T03:29:46;100548.91;;;4.10;79.37
42067;BME280;27734;47.028;28.820;2024-03-06T03:32:18;100549.00;;;4.11;79.61
42067;BME280;27734;47.028;28.820;2024-03-06T03:34:49;100554.38;;;4.14;79.77
42067;BME280;27734;47.028;28.820;2024-03-06T03:37:20;100544.88;;;4.15;80.07
42067;BME280;27734;47.028;28.820;2024-03-06T03:39:51;100555.46;;;4.18;79.93
42067;BME280;27734;47.028;28.820;2024-03-06T03:42:22;100554.48;;;4.16;79.54
42067;BME280;27734;47.028;28.820;2024-03-06T03:44:54;100551.98;;;4.18;79.90
42067;BME280;27734;47.028;28.820;2024-03-06T03:47:25;100551.05;;;4.17;79.94
42067;BME280;27734;47.028;28.820;2024-03-06T03:49:56;100559.04;;;4.20;79.40
42067;BME280;27734;47.028;28.820;2024-03-06T03:52:29;100562.56;;;4.21;79.26
42067;BME280;27734;47.028;28.820;2024-03-06T03:55:00;100561.83;;;4.23;79.92
42067;BME280;27734;47.028;28.820;2024-03-06T03:57:32;100563.54;;;4.23;79.02
42067;BME280;27734;47.028;28.820;2024-03-06T04:00:04;100561.73;;;4.22;79.96
42067;BME280;27734;47.028;28.820;2024-03-06T04:02:42;100576.34;;;4.20;79.98
42067;BME280;27734;47.028;28.820;2024-03-06T04:05:13;100571.05;;;4.18;80.00
42067;BME280;27734;47.028;28.820;2024-03-06T04:07:44;100571.05;;;4.18;80.30
42067;BME280;27734;47.028;28.820;2024-03-06T04:10:15;100585.02;;;4.20;80.28
42067;BME280;27734;47.028;28.820;2024-03-06T04:12:46;100584.12;;;4.20;80.21
42067;BME280;27734;47.028;28.820;2024-03-06T04:15:18;100576.43;;;4.21;79.80
42067;BME280;27734;47.028;28.820;2024-03-06T04:17:49;100583.40;;;4.22;79.64
42067;BME280;27734;47.028;28.820;2024-03-06T04:20:22;100596.48;;;4.24;79.50
42067;BME280;27734;47.028;28.820;2024-03-06T04:22:54;100592.20;;;4.24;79.93
42067;BME280;27734;47.028;28.820;2024-03-06T04:25:25;100599.91;;;4.23;80.16
42067;BME280;27734;47.028;28.820;2024-03-06T04:27:56;100596.23;;;4.19;79.92
42067;BME280;27734;47.028;28.820;2024-03-06T04:30:27;100590.94;;;4.18;79.39
42067;BME280;27734;47.028;28.820;2024-03-06T04:32:58;100589.23;;;4.18;79.71
42067;BME280;27734;47.028;28.820;2024-03-06T04:35:31;100591.12;;;4.21;80.06
42067;BME280;27734;47.028;28.820;2024-03-06T04:38:03;100595.69;;;4.25;80.23
42067;BME280;27734;47.028;28.820;2024-03-06T04:40:35;100595.79;;;4.26;79.86
42067;BME280;27734;47.028;28.820;2024-03-06T04:43:07;100597.50;;;4.26;80.11
42067;BME280;27734;47.028;28.820;2024-03-06T04:45:38;100602.59;;;4.24;79.78
42067;BME280;27734;47.028;28.820;2024-03-06T04:48:09;100598.98;;;4.22;79.75
42067;BME280;27734;47.028;28.820;2024-03-06T04:50:40;100603.48;;;4.25;79.89
42067;BME280;27734;47.028;28.820;2024-03-06T04:53:12;100600.09;;;4.26;80.48
42067;BME280;27734;47.028;28.820;2024-03-06T04:55:43;100603.17;;;4.34;79.94
42067;BME280;27734;47.028;28.820;2024-03-06T04:58:14;100610.52;;;4.41;79.84
42067;BME280;27734;47.028;28.820;2024-03-06T05:00:45;100597.03;;;4.46;80.05
42067;BME280;27734;47.028;28.820;2024-03-06T05:03:17;100602.32;;;4.48;79.87
42067;BME280;27734;47.028;28.820;2024-03-06T05:05:48;100596.14;;;4.46;80.31
42067;BME280;27734;47.028;28.820;2024-03-06T05:08:19;100604.03;;;4.47;80.38
42067;BME280;27734;47.028;28.820;2024-03-06T05:10:51;100598.01;;;4.48;79.99
42067;BME280;27734;47.028;28.820;2024-03-06T05:13:22;100600.70;;;4.50;79.87
42067;BME280;27734;47.028;28.820;2024-03-06T05:15:54;100601.72;;;4.52;80.29
42067;BME280;27734;47.028;28.820;2024-03-06T05:18:25;100599.31;;;4.55;79.93
42067;BME280;27734;47.028;28.820;2024-03-06T05:20:56;100599.31;;;4.55;79.64
42067;BME280;27734;47.028;28.820;2024-03-06T05:23:28;100604.70;;;4.58;80.54
42067;BME280;27734;47.028;28.820;2024-03-06T05:25:59;100604.15;;;4.64;79.86
42067;BME280;27734;47.028;28.820;2024-03-06T05:28:30;100614.83;;;4.68;79.98
42067;BME280;27734;47.028;28.820;2024-03-06T05:31:13;100602.02;;;4.72;80.31
42067;BME280;27734;47.028;28.820;2024-03-06T05:33:46;100605.63;;;4.74;79.91
42067;BME280;27734;47.028;28.820;2024-03-06T05:36:17;100611.17;;;4.80;80.04
42067;BME280;27734;47.028;28.820;2024-03-06T05:38:49;100615.16;;;4.88;79.77
42067;BME280;27734;47.028;28.820;2024-03-06T05:41:20;100609.50;;;4.95;80.04
42067;BME280;27734;47.028;28.820;2024-03-06T05:43:51;100601.17;;;5.01;80.23
42067;BME280;27734;47.028;28.820;2024-03-06T05:46:22;100607.63;;;5.08;79.85
42067;BME280;27734;47.028;28.820;2024-03-06T05:48:53;100610.59;;;5.14;79.78
42067;BME280;27734;47.028;28.820;2024-03-06T05:51:25;100608.53;;;5.23;79.99
42067;BME280;27734;47.028;28.820;2024-03-06T05:53:56;100608.98;;;5.31;79.87
42067;BME280;27734;47.028;28.820;2024-03-06T05:56:27;100600.74;;;5.38;79.64
42067;BME280;27734;47.028;28.820;2024-03-06T05:58:58;100603.05;;;5.48;79.27
42067;BME280;27734;47.028;28.820;2024-03-06T06:01:34;100601.98;;;5.60;79.99
42067;BME280;27734;47.028;28.820;2024-03-06T06:04:05;100611.91;;;5.67;79.40
42067;BME280;27734;47.028;28.820;2024-03-06T06:06:37;100613.19;;;5.73;79.79
42067;BME280;27734;47.028;28.820;2024-03-06T06:09:08;100601.66;;;5.85;79.64
42067;BME280;27734;47.028;28.820;2024-03-06T06:11:46;100607.39;;;5.94;79.87
42067;BME280;27734;47.028;28.820;2024-03-06T06:14:18;100607.02;;;6.03;79.34
42067;BME280;27734;47.028;28.820;2024-03-06T06:16:49;100608.62;;;6.16;79.43
42067;BME280;27734;47.028;28.820;2024-03-06T06:19:21;100607.48;;;6.27;79.83
42067;BME280;27734;47.028;28.820;2024-03-06T06:21:54;100608.88;;;6.37;79.24
42067;BME280;27734;47.028;28.820;2024-03-06T06:24:25;100606.69;;;6.44;79.04
42067;BME280;27734;47.028;28.820;2024-03-06T06:26:56;100612.23;;;6.51;79.11
42067;BME280;27734;47.028;28.820;2024-03-06T06:29:27;100607.51;;;6.60;78.89
42067;BME280;27734;47.028;28.820;2024-03-06T06:31:59;100616.87;;;6.73;79.36
42067;BME280;27734;47.028;28.820;2024-03-06T06:34:32;100615.67;;;6.82;78.15
42067;BME280;27734;47.028;28.820;2024-03-06T06:37:04;100616.28;;;6.95;77.94
42067;BME280;27734;47.028;28.820;2024-03-06T06:39:35;100622.66;;;7.00;76.55
42067;BME280;27734;47.028;28.820;2024-03-06T06:42:06;100622.89;;;7.05;75.89
42067;BME280;27734;47.028;28.820;2024-03-06T06:44:38;100624.17;;;7.13;75.85
42067;BME280;27734;47.028;28.820;2024-03-06T06:47:11;100624.57;;;7.20;75.59
42067;BME280;27734;47.028;28.820;2024-03-06T06:49:42;100626.69;;;7.28;75.23
42067;BME280;27734;47.028;28.820;2024-03-06T06:52:15;100622.67;;;7.34;75.55
42067;BME280;27734;47.028;28.820;2024-03-06T06:54:46;100629.77;;;7.37;73.95
42067;BME280;27734;47.028;28.820;2024-03-06T06:57:18;100624.90;;;7.45;74.69
42067;BME280;27734;47.028;28.820;2024-03-06T06:59:51;100621.06;;;7.54;75.01
42067;BME280;27734;47.028;28.820;2024-03-06T07:02:25;100625.67;;;7.60;74.21
42067;BME280;27734;47.028;28.820;2024-03-06T07:05:00;100625.16;;;7.67;73.45
42067;BME280;27734;47.028;28.820;2024-03-06T07:07:31;100619.52;;;7.76;73.01
42067;BME280;27734;47.028;28.820;2024-03-06T07:10:03;100622.27;;;7.79;73.70
42067;BME280;27734;47.028;28.820;2024-03-06T07:12:35;100619.58;;;7.78;73.76
42067;BME280;27734;47.028;28.820;2024-03-06T07:15:08;100627.80;;;7.85;73.59
42067;BME280;27734;47.028;28.820;2024-03-06T07:17:42;100620.37;;;7.95;73.35
42067;BME280;27734;47.028;28.820;2024-03-06T07:20:14;100626.05;;;8.04;71.65
42067;BME280;27734;47.028;28.820;2024-03-06T07:22:45;100627.33;;;8.12;72.31
42067;BME280;27734;47.028;28.820;2024-03-06T07:25:16;100623.56;;;8.25;71.32
42067;BME280;27734;47.028;28.820;2024-03-06T07:27:48;100624.88;;;8.35;71.10
42067;BME280;27734;47.028;28.820;2024-03-06T07:30:19;100610.25;;;8.38;71.13
42067;BME280;27734;47.028;28.820;2024-03-06T07:32:51;100626.37;;;8.48;71.46
42067;BME280;27734;47.028;28.820;2024-03-06T07:35:22;100627.28;;;8.48;69.80
42067;BME280;27734;47.028;28.820;2024-03-06T07:37:54;100624.11;;;8.55;68.57
42067;BME280;27734;47.028;28.820;2024-03-06T07:40:25;100639.80;;;8.55;63.14
42067;BME280;27734;47.028;28.820;2024-03-06T07:42:57;100633.75;;;8.56;67.74
42067;BME280;27734;47.028;28.820;2024-03-06T07:45:29;100632.02;;;8.57;67.21
42067;BME280;27734;47.028;28.820;2024-03-06T07:48:01;100632.30;;;8.63;66.87
42067;BME280;27734;47.028;28.820;2024-03-06T07:50:32;100626.19;;;8.62;63.85
42067;BME280;27734;47.028;28.820;2024-03-06T07:53:05;100634.39;;;8.70;65.91
42067;BME280;27734;47.028;28.820;2024-03-06T07:55:35;100637.70;;;8.86;66.42
42067;BME280;27734;47.028;28.820;2024-03-06T07:58:07;100630.53;;;9.01;66.02
42067;BME280;27734;47.028;28.820;2024-03-06T08:00:39;100629.47;;;9.17;66.73
42067;BME280;27734;47.028;28.820;2024-03-06T08:03:10;100630.88;;;9.30;64.34
42067;BME280;27734;47.028;28.820;2024-03-06T08:05:42;100630.75;;;9.27;60.27
42067;BME280;27734;47.028;28.820;2024-03-06T08:08:13;100631.27;;;9.18;61.48
42067;BME280;27734;47.028;28.820;2024-03-06T08:10:43;100627.11;;;9.23;62.79
42067;BME280;27734;47.028;28.820;2024-03-06T08:13:15;100631.86;;;9.32;63.70
42067;BME280;27734;47.028;28.820;2024-03-06T08:15:48;100635.01;;;9.44;63.99
42067;BME280;27734;47.028;28.820;2024-03-06T08:18:20;100628.61;;;9.59;63.21
42067;BME280;27734;47.028;28.820;2024-03-06T08:20:50;100638.44;;;9.64;63.41
42067;BME280;27734;47.028;28.820;2024-03-06T08:23:21;100630.77;;;9.69;63.08
42067;BME280;27734;47.028;28.820;2024-03-06T08:25:52;100640.87;;;9.81;63.19
42067;BME280;27734;47.028;28.820;2024-03-06T08:28:23;100638.88;;;9.75;59.71
42067;BME280;27734;47.028;28.820;2024-03-06T08:30:53;100635.50;;;9.78;56.52
42067;BME280;27734;47.028;28.820;2024-03-06T08:33:24;100640.05;;;9.82;60.35
42067;BME280;27734;47.028;28.820;2024-03-06T08:35:57;100640.05;;;9.82;57.72
42067;BME280;27734;47.028;28.820;2024-03-06T08:38:27;100639.55;;;9.69;55.80
42067;BME280;27734;47.028;28.820;2024-03-06T08:40:58;100642.86;;;9.65;57.87
42067;BME280;27734;47.028;28.820;2024-03-06T08:43:28;100644.31;;;9.80;59.03
42067;BME280;27734;47.028;28.820;2024-03-06T08:45:59;100640.42;;;9.91;59.25
42067;BME280;27734;47.028;28.820;2024-03-06T08:48:30;100637.32;;;10.01;59.05
42067;BME280;27734;47.028;28.820;2024-03-06T08:51:00;100641.14;;;10.10;58.35
42067;BME280;27734;47.028;28.820;2024-03-06T08:53:32;100640.56;;;10.17;58.81
42067;BME280;27734;47.028;28.820;2024-03-06T08:56:02;100649.95;;;10.33;59.08
42067;BME280;27734;47.028;28.820;2024-03-06T08:58:34;100641.26;;;10.34;57.62
42067;BME280;27734;47.028;28.820;2024-03-06T09:01:05;100640.37;;;10.33;54.86
42067;BME280;27734;47.028;28.820;2024-03-06T09:03:41;100634.00;;;10.28;55.14
42067;BME280;27734;47.028;28.820;2024-03-06T09:06:14;100638.30;;;10.26;55.67
42067;BME280;27734;47.028;28.820;2024-03-06T09:08:44;100641.10;;;10.31;55.57
42067;BME280;27734;47.028;28.820;2024-03-06T09:11:16;100638.69;;;10.35;54.99
42067;BME280;27734;47.028;28.820;2024-03-06T09:13:49;100631.00;;;10.40;55.44
42067;BME280;27734;47.028;28.820;2024-03-06T09:16:20;100631.13;;;10.43;56.20
42067;BME280;27734;47.028;28.820;2024-03-06T09:18:50;100635.92;;;10.55;55.89
42067;BME280;27734;47.028;28.820;2024-03-06T09:21:21;100632.59;;;10.59;56.49
42067;BME280;27734;47.028;28.820;2024-03-06T09:23:54;100632.28;;;10.74;57.06
42067;BME280;27734;47.028;28.820;2024-03-06T09:26:28;100640.04;;;10.71;54.79
42067;BME280;27734;47.028;28.820;2024-03-06T09:28:59;100631.13;;;10.67;55.04
42067;BME280;27734;47.028;28.820;2024-03-06T09:31:32;100634.62;;;10.66;54.60
42067;BME280;27734;47.028;28.820;2024-03-06T09:34:03;100643.14;;;10.60;51.22
42067;BME280;27734;47.028;28.820;2024-03-06T09:36:33;100635.98;;;10.56;52.45
42067;BME280;27734;47.028;28.820;2024-03-06T09:39:03;100634.39;;;10.60;54.46
42067;BME280;27734;47.028;28.820;2024-03-06T09:41:34;100636.38;;;10.67;54.53
42067;BME280;27734;47.028;28.820;2024-03-06T09:44:05;100637.41;;;10.71;51.39
42067;BME280;27734;47.028;28.820;2024-03-06T09:46:36;100633.16;;;10.74;53.58
42067;BME280;27734;47.028;28.820;2024-03-06T09:49:07;100628.14;;;10.81;52.71
42067;BME280;27734;47.028;28.820;2024-03-06T09:51:40;100626.45;;;10.83;53.22
42067;BME280;27734;47.028;28.820;2024-03-06T09:54:14;100621.48;;;10.90;53.91
42067;BME280;27734;47.028;28.820;2024-03-06T09:56:46;100621.66;;;10.95;52.63
42067;BME280;27734;47.028;28.820;2024-03-06T09:59:16;100627.02;;;10.98;53.17
42067;BME280;27734;47.028;28.820;2024-03-06T10:01:53;100628.23;;;11.08;53.41
42067;BME280;27734;47.028;28.820;2024-03-06T10:04:28;100632.92;;;11.17;49.99
42067;BME280;27734;47.028;28.820;2024-03-06T10:07:06;100620.57;;;11.14;51.85
42067;BME280;27734;47.028;28.820;2024-03-06T10:09:40;100623.06;;;11.35;51.86
42067;BME280;27734;47.028;28.820;2024-03-06T10:12:19;100618.91;;;11.42;51.06
42067;BME280;27734;47.028;28.820;2024-03-06T10:14:52;100623.59;;;11.50;51.00
42067;BME280;27734;47.028;28.820;2024-03-06T10:17:23;100623.75;;;11.55;49.79
42067;BME280;27734;47.028;28.820;2024-03-06T10:19:56;100628.84;;;11.50;50.54
42067;BME280;27734;47.028;28.820;2024-03-06T10:22:30;100622.61;;;11.47;49.86
42067;BME280;27734;47.028;28.820;2024-03-06T10:25:00;100638.69;;;11.56;49.08
42067;BME280;27734;47.028;28.820;2024-03-06T10:27:31;100624.31;;;11.46;49.22
42067;BME280;27734;47.028;28.820;2024-03-06T10:30:06;100623.84;;;11.32;47.68
42067;BME280;27734;47.028;28.820;2024-03-06T10:32:42;100629.47;;;11.18;46.49
42067;BME280;27734;47.028;28.820;2024-03-06T10:35:20;100627.67;;;11.17;47.00
42067;BME280;27734;47.028;28.820;2024-03-06T10:37:51;100625.88;;;11.15;47.85
42067;BME280;27734;47.028;28.820;2024-03-06T10:40:24;100636.38;;;11.15;46.60
42067;BME280;27734;47.028;28.820;2024-03-06T10:42:54;100632.16;;;11.19;48.40
42067;BME280;27734;47.028;28.820;2024-03-06T10:45:32;100632.20;;;11.21;44.42
42067;BME280;27734;47.028;28.820;2024-03-06T10:48:06;100628.50;;;11.15;47.51
42067;BME280;27734;47.028;28.820;2024-03-06T10:50:40;100619.63;;;11.12;47.15
42067;BME280;27734;47.028;28.820;2024-03-06T10:53:13;100619.29;;;11.27;47.77
42067;BME280;27734;47.028;28.820;2024-03-06T10:55:44;100619.92;;;11.45;46.82
42067;BME280;27734;47.028;28.820;2024-03-06T10:58:15;100624.69;;;11.57;45.47
42067;BME280;27734;47.028;28.820;2024-03-06T11:00:47;100625.72;;;11.62;45.37
42067;BME280;27734;47.028;28.820;2024-03-06T11:03:18;100617.98;;;11.67;46.52
42067;BME280;27734;47.028;28.820;2024-03-06T11:05:48;100614.73;;;11.74;46.89
42067;BME280;27734;47.028;28.820;2024-03-06T11:08:20;100621.48;;;11.66;45.35
42067;BME280;27734;47.028;28.820;2024-03-06T11:10:52;100620.34;;;11.58;44.94
42067;BME280;27734;47.028;28.820;2024-03-06T11:13:30;100626.43;;;11.57;45.59
42067;BME280;27734;47.028;28.820;2024-03-06T11:16:03;100619.53;;;11.60;44.83
42067;BME280;27734;47.028;28.820;2024-03-06T11:18:44;100628.17;;;11.56;45.81
42067;BME280;27734;47.028;28.820;2024-03-06T11:21:47;100625.59;;;11.58;45.95
42067;BME280;27734;47.028;28.820;2024-03-06T11:24:19;100627.26;;;11.56;45.50
42067;BME280;27734;47.028;28.820;2024-03-06T11:26:53;100618.49;;;11.55;45.92
42067;BME280;27734;47.028;28.820;2024-03-06T11:29:32;100625.49;;;11.55;45.77
42067;BME280;27734;47.028;28.820;2024-03-06T11:32:19;100620.97;;;11.50;45.00
42067;BME280;27734;47.028;28.820;2024-03-06T11:34:50;100613.91;;;11.49;44.74
42067;BME280;27734;47.028;28.820;2024-03-06T11:37:22;100621.17;;;11.57;45.63
42067;BME280;27734;47.028;28.820;2024-03-06T11:40:04;100612.58;;;11.62;44.76
42067;BME280;27734;47.028;28.820;2024-03-06T11:42:37;100616.95;;;11.62;44.07
42067;BME280;27734;47.028;28.820;2024-03-06T11:45:17;100617.10;;;11.66;44.91
42067;BME280;27734;47.028;28.820;2024-03-06T11:48:02;100617.45;;;11.77;45.20
42067;BME280;27734;47.028;28.820;2024-03-06T11:50:32;100614.05;;;11.80;45.12
42067;BME280;27734;47.028;28.820;2024-03-06T11:53:03;100613.33;;;11.85;44.13
42067;BME280;27734;47.028;28.820;2024-03-06T11:55:34;100606.84;;;11.74;44.19
42067;BME280;27734;47.028;28.820;2024-03-06T11:58:06;100612.88;;;11.72;44.28
42067;BME280;27734;47.028;28.820;2024-03-06T12:00:39;100626.89;;;11.71;43.86
42067;BME280;27734;47.028;28.820;2024-03-06T12:03:14;100622.52;;;11.71;44.07
42067;BME280;27734;47.028;28.820;2024-03-06T12:05:45;100618.09;;;11.70;43.04
42067;BME280;27734;47.028;28.820;2024-03-06T12:08:16;100616.84;;;11.59;43.06
42067;BME280;27734;47.028;28.820;2024-03-06T12:10:47;100621.06;;;11.54;43.25
42067;BME280;27734;47.028;28.820;2024-03-06T12:13:17;100614.12;;;11.56;43.48
42067;BME280;27734;47.028;28.820;2024-03-06T12:15:49;100614.12;;;11.56;42.87
42067;BME280;27734;47.028;28.820;2024-03-06T12:18:20;100616.84;;;11.59;43.79
42067;BME280;27734;47.028;28.820;2024-03-06T12:20:52;100618.91;;;11.67;44.06
42067;BME280;27734;47.028;28.820;2024-03-06T12:23:23;100623.50;;;11.75;42.87
42067;BME280;27734;47.028;28.820;2024-03-06T12:26:05;100622.31;;;11.65;42.06
42067;BME280;27734;47.028;28.820;2024-03-06T12:28:37;100620.19;;;11.53;42.94
42067;BME280;27734;47.028;28.820;2024-03-06T12:31:08;100621.22;;;11.58;43.98
42067;BME280;27734;47.028;28.820;2024-03-06T12:33:38;100624.37;;;11.48;42.64
42067;BME280;27734;47.028;28.820;2024-03-06T12:36:09;100638.72;;;11.32;41.21
42067;BME280;27734;47.028;28.820;2024-03-06T12:38:40;100624.99;;;11.15;42.45
42067;BME280;27734;47.028;28.820;2024-03-06T12:41:10;100632.48;;;11.04;42.72
42067;BME280;27734;47.028;28.820;2024-03-06T12:43:42;100620.00;;;10.97;42.82
42067;BME280;27734;47.028;28.820;2024-03-06T12:46:13;100639.27;;;10.97;42.92
42067;BME280;27734;47.028;28.820;2024-03-06T12:48:46;100630.55;;;10.99;43.18
42067;BME280;27734;47.028;28.820;2024-03-06T12:51:19;100640.20;;;11.00;43.17
42067;BME280;27734;47.028;28.820;2024-03-06T12:53:49;100630.55;;;10.99;43.25
42067;BME280;27734;47.028;28.820;2024-03-06T12:56:20;100632.09;;;10.93;43.73
42067;BME280;27734;47.028;28.820;2024-03-06T12:58:50;100633.50;;;10.84;42.86
42067;BME280;27734;47.028;28.820;2024-03-06T13:01:20;100638.64;;;10.81;43.12
42067;BME280;27734;47.028;28.820;2024-03-06T13:04:09;100625.52;;;10.81;42.94
42067;BME280;27734;47.028;28.820;2024-03-06T13:06:39;100628.86;;;10.76;42.67
42067;BME280;27734;47.028;28.820;2024-03-06T13:09:10;100633.87;;;10.70;42.74
42067;BME280;27734;47.028;28.820;2024-03-06T13:11:40;100627.74;;;10.70;42.74
42067;BME280;27734;47.028;28.820;2024-03-06T13:14:14;100632.22;;;10.72;42.66